createdAt,value
2018-07-16T00:02:22.191Z,18.20
2018-07-16T00:04:26.672Z,18.20
2018-07-16T00:06:31.148Z,18.10
2018-07-16T00:08:35.614Z,18.10
2018-07-16T00:10:40.058Z,18.00
2018-07-16T00:12:44.507Z,18.00
2018-07-16T00:14:48.950Z,17.90
2018-07-16T00:16:53.530Z,17.90
2018-07-16T00:18:58.126Z,17.90
2018-07-16T00:21:02.570Z,17.80
2018-07-16T00:23:07.182Z,17.80
2018-07-16T00:25:11.649Z,17.80
2018-07-16T00:27:16.413Z,17.80
2018-07-16T00:29:20.977Z,17.70
2018-07-16T00:31:25.397Z,17.70
2018-07-16T00:33:29.851Z,17.70
2018-07-16T00:35:34.232Z,17.60
2018-07-16T00:37:38.698Z,17.60
2018-07-16T00:39:43.226Z,17.60
2018-07-16T00:41:47.671Z,17.50
2018-07-16T00:43:52.125Z,17.50
2018-07-16T00:45:57.074Z,17.50
2018-07-16T00:48:01.478Z,17.50
2018-07-16T00:50:05.927Z,17.40
2018-07-16T00:52:10.363Z,17.40
2018-07-16T00:54:15.473Z,17.40
2018-07-16T00:56:19.961Z,17.30
2018-07-16T00:58:24.388Z,17.30
2018-07-16T01:00:31.946Z,17.30
2018-07-16T01:02:38.412Z,17.30
2018-07-16T01:04:45.036Z,17.30
2018-07-16T01:06:51.668Z,17.20
2018-07-16T01:08:57.500Z,17.20
2018-07-16T01:11:05.938Z,17.20
2018-07-16T01:13:12.528Z,17.10
2018-07-16T01:15:20.115Z,17.10
2018-07-16T01:17:26.243Z,17.10
2018-07-16T01:19:33.782Z,17.10
2018-07-16T01:21:39.396Z,17.00
2018-07-16T01:23:45.743Z,17.00
2018-07-16T01:25:51.403Z,17.00
2018-07-16T01:27:58.791Z,17.00
2018-07-16T01:30:05.214Z,16.90
2018-07-16T01:32:13.437Z,16.90
2018-07-16T01:34:20.959Z,16.90
2018-07-16T01:36:27.634Z,16.90
2018-07-16T01:38:34.975Z,16.80
2018-07-16T01:40:43.202Z,16.80
2018-07-16T01:42:48.876Z,16.80
2018-07-16T01:44:56.208Z,16.70
2018-07-16T01:47:02.263Z,16.70
2018-07-16T01:51:16.079Z,16.60
2018-07-16T01:55:28.156Z,16.50
2018-07-16T01:57:36.119Z,16.50
2018-07-16T01:59:42.666Z,16.50
2018-07-16T02:01:47.216Z,16.50
2018-07-16T02:03:54.605Z,16.40
2018-07-16T02:06:01.562Z,16.40
2018-07-16T02:08:08.985Z,16.30
2018-07-16T02:10:15.241Z,16.30
2018-07-16T02:14:28.821Z,16.30
2018-07-16T02:16:37.663Z,16.20
2018-07-16T02:18:42.178Z,16.20
2018-07-16T02:20:47.331Z,16.20
2018-07-16T02:22:51.794Z,16.10
2018-07-16T02:24:56.223Z,16.10
2018-07-16T02:27:00.751Z,16.10
2018-07-16T02:29:05.161Z,16.10
2018-07-16T02:31:09.646Z,16.00
2018-07-16T02:35:19.554Z,16.00
2018-07-16T02:37:23.942Z,16.00
2018-07-16T02:39:28.449Z,15.90
2018-07-16T02:41:33.623Z,15.90
2018-07-16T02:43:38.072Z,15.90
2018-07-16T02:45:42.563Z,15.80
2018-07-16T02:47:47.155Z,15.80
2018-07-16T02:49:51.602Z,15.80
2018-07-16T02:51:56.039Z,15.80
2018-07-16T02:54:00.466Z,15.70
2018-07-16T02:56:04.960Z,15.70
2018-07-16T02:58:09.382Z,15.70
2018-07-16T03:00:13.933Z,15.60
2018-07-16T03:02:18.371Z,15.60
2018-07-16T03:06:27.091Z,15.60
2018-07-16T03:08:31.530Z,15.60
2018-07-16T03:10:36.112Z,15.60
2018-07-16T03:12:40.735Z,15.50
2018-07-16T03:14:45.414Z,15.50
2018-07-16T03:16:49.874Z,15.50
2018-07-16T03:18:54.340Z,15.50
2018-07-16T03:20:58.839Z,15.40
2018-07-16T03:23:03.278Z,15.40
2018-07-16T03:25:07.843Z,15.40
2018-07-16T03:27:12.288Z,15.40
2018-07-16T03:29:16.775Z,15.40
2018-07-16T03:31:21.205Z,15.30
2018-07-16T03:35:29.862Z,15.30
2018-07-16T03:37:34.395Z,15.30
2018-07-16T03:39:38.840Z,15.30
2018-07-16T03:41:46.135Z,15.20
2018-07-16T03:45:56.072Z,15.20
2018-07-16T03:48:00.566Z,15.20
2018-07-16T03:50:05.064Z,15.20
2018-07-16T03:52:09.681Z,15.10
2018-07-16T03:54:14.134Z,15.20
2018-07-16T03:56:18.671Z,15.10
2018-07-16T03:58:26.058Z,15.10
2018-07-16T04:00:32.882Z,15.10
2018-07-16T04:02:37.695Z,15.00
2018-07-16T04:04:45.484Z,15.00
2018-07-16T04:06:52.658Z,15.00
2018-07-16T04:08:59.365Z,15.00
2018-07-16T04:11:06.437Z,15.00
2018-07-16T04:13:13.801Z,15.00
2018-07-16T04:15:20.805Z,15.00
2018-07-16T04:17:26.735Z,14.90
2018-07-16T04:19:31.370Z,14.90
2018-07-16T04:21:37.043Z,14.90
2018-07-16T04:25:45.625Z,14.90
2018-07-16T04:27:50.050Z,14.90
2018-07-16T04:29:54.538Z,14.90
2018-07-16T04:31:58.995Z,14.90
2018-07-16T04:34:03.454Z,14.90
2018-07-16T04:36:07.994Z,14.80
2018-07-16T04:38:12.433Z,14.90
2018-07-16T04:40:17.248Z,14.90
2018-07-16T04:42:21.773Z,14.80
2018-07-16T04:44:26.202Z,14.90
2018-07-16T04:46:30.624Z,14.90
2018-07-16T04:48:37.806Z,14.90
2018-07-16T04:50:42.524Z,14.90
2018-07-16T04:52:47.815Z,14.90
2018-07-16T04:54:52.268Z,14.90
2018-07-16T04:56:57.486Z,14.90
2018-07-16T04:59:01.939Z,14.90
2018-07-16T05:01:06.702Z,14.90
2018-07-16T05:03:11.224Z,14.90
2018-07-16T05:05:15.814Z,15.00
2018-07-16T05:07:20.338Z,14.90
2018-07-16T05:09:24.755Z,15.00
2018-07-16T05:11:29.200Z,15.00
2018-07-16T05:13:33.664Z,15.00
2018-07-16T05:15:38.225Z,15.10
2018-07-16T05:17:42.710Z,15.10
2018-07-16T05:19:47.163Z,15.10
2018-07-16T05:21:51.596Z,15.20
2018-07-16T05:23:56.058Z,15.20
2018-07-16T05:26:00.470Z,15.30
2018-07-16T05:28:04.913Z,15.40
2018-07-16T05:30:09.327Z,15.40
2018-07-16T05:32:14.219Z,15.50
2018-07-16T05:40:31.063Z,15.80
2018-07-16T05:42:36.471Z,15.90
2018-07-16T05:44:40.934Z,16.00
2018-07-16T05:46:45.356Z,16.00
2018-07-16T05:48:49.776Z,16.20
2018-07-16T05:50:54.175Z,16.30
2018-07-16T05:52:58.661Z,16.30
2018-07-16T05:55:03.275Z,16.50
2018-07-16T05:57:07.700Z,16.50
2018-07-16T06:01:16.777Z,16.70
2018-07-16T06:05:25.439Z,16.90
2018-07-16T06:07:29.854Z,17.00
2018-07-16T06:09:34.305Z,17.00
2018-07-16T06:11:38.854Z,17.20
2018-07-16T06:13:44.251Z,17.30
2018-07-16T06:15:48.675Z,17.40
2018-07-16T06:17:53.112Z,17.40
2018-07-16T06:22:02.839Z,17.60
2018-07-16T06:24:07.809Z,17.80
2018-07-16T06:26:13.119Z,17.80
2018-07-16T06:30:24.389Z,18.10
2018-07-16T06:32:28.893Z,18.10
2018-07-16T06:34:33.275Z,18.30
2018-07-16T06:36:38.823Z,18.40
2018-07-16T06:38:48.110Z,18.50
2018-07-16T06:40:52.840Z,18.60
2018-07-16T06:42:57.754Z,18.70
2018-07-16T06:45:02.338Z,18.80
2018-07-16T06:47:07.201Z,18.90
2018-07-16T06:49:11.682Z,19.00
2018-07-16T06:51:16.094Z,19.20
2018-07-16T06:53:20.558Z,19.30
2018-07-16T06:55:25.012Z,19.40
2018-07-16T06:57:29.468Z,19.50
2018-07-16T06:59:33.876Z,19.60
2018-07-16T07:01:39.450Z,19.70
2018-07-16T07:03:43.979Z,19.90
2018-07-16T07:05:48.520Z,20.00
2018-07-16T07:07:52.958Z,20.10
2018-07-16T07:09:57.436Z,20.20
2018-07-16T07:12:01.897Z,20.40
2018-07-16T07:14:06.727Z,20.50
2018-07-16T07:16:11.165Z,20.60
2018-07-16T07:20:20.226Z,20.90
2018-07-16T07:22:24.650Z,21.00
2018-07-16T07:24:29.133Z,21.10
2018-07-16T07:26:33.614Z,21.20
2018-07-16T07:28:38.080Z,21.40
2018-07-16T07:30:42.529Z,21.50
2018-07-16T07:32:47.014Z,21.60
2018-07-16T07:34:51.908Z,21.70
2018-07-16T07:36:56.376Z,21.90
2018-07-16T07:39:00.832Z,22.00
2018-07-16T07:41:05.307Z,22.20
2018-07-16T07:45:13.973Z,22.40
2018-07-16T07:47:18.694Z,22.60
2018-07-16T07:49:23.276Z,22.70
2018-07-16T07:53:32.522Z,23.00
2018-07-16T07:55:37.042Z,23.20
2018-07-16T07:57:41.502Z,23.30
2018-07-16T07:59:46.002Z,23.50
2018-07-16T08:01:50.541Z,23.60
2018-07-16T08:03:55.270Z,23.80
2018-07-16T08:06:06.594Z,23.90
2018-07-16T08:08:11.103Z,24.10
2018-07-16T08:10:15.585Z,24.30
2018-07-16T08:12:20.089Z,24.40
2018-07-16T08:14:24.684Z,24.60
2018-07-16T08:16:29.206Z,24.70
2018-07-16T08:18:35.229Z,24.90
2018-07-16T08:22:47.601Z,25.30
2018-07-16T08:24:54.342Z,25.40
2018-07-16T08:29:08.931Z,25.70
2018-07-16T08:31:20.855Z,25.90
2018-07-16T08:33:28.918Z,26.00
2018-07-16T08:35:33.446Z,26.20
2018-07-16T08:37:37.899Z,26.30
2018-07-16T08:39:42.408Z,26.40
2018-07-16T08:41:47.122Z,26.60
2018-07-16T08:43:51.619Z,26.80
2018-07-16T08:45:56.058Z,26.90
2018-07-16T08:48:00.484Z,27.00
2018-07-16T08:50:05.291Z,27.10
2018-07-16T08:52:09.784Z,27.30
2018-07-16T08:54:14.222Z,27.30
2018-07-16T08:56:18.790Z,27.50
2018-07-16T08:58:23.283Z,27.60
2018-07-16T09:00:27.718Z,27.70
2018-07-16T09:02:32.146Z,27.80
2018-07-16T09:04:36.573Z,27.90
2018-07-16T09:06:41.090Z,28.10
2018-07-16T09:08:45.587Z,28.10
2018-07-16T09:10:50.115Z,28.30
2018-07-16T09:12:54.647Z,28.40
2018-07-16T09:14:59.118Z,28.50
2018-07-16T09:17:03.537Z,28.60
2018-07-16T09:19:08.117Z,28.70
2018-07-16T09:21:12.570Z,28.80
2018-07-16T09:23:17.223Z,28.90
2018-07-16T09:27:26.132Z,29.00
2018-07-16T09:29:30.557Z,29.10
2018-07-16T09:31:35.020Z,29.20
2018-07-16T09:33:40.554Z,29.30
2018-07-16T09:35:45.003Z,29.40
2018-07-16T09:37:49.542Z,29.50
2018-07-16T09:39:54.023Z,29.60
2018-07-16T09:41:58.551Z,29.60
2018-07-16T09:44:03.035Z,29.70
2018-07-16T09:46:07.471Z,29.80
2018-07-16T09:48:11.870Z,29.80
2018-07-16T09:50:16.319Z,29.90
2018-07-16T09:52:20.970Z,30.00
2018-07-16T09:56:29.807Z,30.10
2018-07-16T09:58:34.486Z,30.20
2018-07-16T10:00:39.011Z,30.20
2018-07-16T10:02:47.589Z,30.30
2018-07-16T10:04:52.081Z,30.40
2018-07-16T10:06:56.607Z,30.40
2018-07-16T10:09:01.056Z,30.50
2018-07-16T10:11:05.731Z,30.60
2018-07-16T10:13:10.156Z,30.60
2018-07-16T10:15:14.607Z,30.70
2018-07-16T10:17:18.993Z,30.80
2018-07-16T10:19:23.454Z,30.80
2018-07-16T10:21:27.898Z,31.00
2018-07-16T10:23:32.290Z,31.00
2018-07-16T10:25:36.791Z,31.10
2018-07-16T10:27:41.247Z,31.10
2018-07-16T10:29:45.702Z,31.20
2018-07-16T10:31:50.123Z,31.30
2018-07-16T10:33:54.592Z,31.30
2018-07-16T10:35:59.054Z,31.40
2018-07-16T10:38:03.486Z,31.40
2018-07-16T10:40:07.967Z,31.50
2018-07-16T10:42:12.407Z,31.60
2018-07-16T10:44:16.903Z,31.60
2018-07-16T10:46:21.569Z,31.70
2018-07-16T10:48:26.043Z,31.70
2018-07-16T10:50:30.530Z,31.80
2018-07-16T10:52:35.074Z,32.00
2018-07-16T10:58:48.814Z,32.10
2018-07-16T11:00:53.334Z,32.20
2018-07-16T11:02:58.098Z,32.30
2018-07-16T11:05:02.630Z,32.30
2018-07-16T11:07:07.183Z,32.30
2018-07-16T11:09:11.737Z,32.40
2018-07-16T11:11:16.265Z,32.50
2018-07-16T11:13:21.603Z,32.50
2018-07-16T11:17:30.174Z,32.60
2018-07-16T11:19:34.686Z,32.70
2018-07-16T11:21:39.188Z,32.70
2018-07-16T11:23:43.875Z,32.80
2018-07-16T11:28:03.293Z,32.90
2018-07-16T11:30:08.463Z,33.00
2018-07-16T11:34:17.139Z,33.10
2018-07-16T11:36:21.855Z,33.20
2018-07-16T11:38:26.402Z,33.20
2018-07-16T11:40:30.909Z,33.30
2018-07-16T11:42:35.346Z,33.40
2018-07-16T11:44:39.802Z,33.40
2018-07-16T11:46:44.298Z,33.50
2018-07-16T11:48:48.714Z,33.50
2018-07-16T11:50:53.231Z,33.60
2018-07-16T11:55:01.828Z,33.70
2018-07-16T11:57:06.305Z,33.70
2018-07-16T11:59:10.748Z,33.70
2018-07-16T12:01:15.170Z,33.80
2018-07-16T12:03:19.693Z,33.80
2018-07-16T12:05:24.216Z,33.90
2018-07-16T12:07:28.676Z,33.90
2018-07-16T12:09:33.101Z,34.00
2018-07-16T12:11:37.639Z,34.10
2018-07-16T12:15:46.427Z,34.20
2018-07-16T12:17:50.875Z,34.20
2018-07-16T12:19:55.289Z,34.30
2018-07-16T12:21:59.703Z,34.40
2018-07-16T12:24:04.162Z,34.40
2018-07-16T12:26:08.647Z,34.40
2018-07-16T12:28:13.066Z,34.50
2018-07-16T12:30:17.504Z,34.40
2018-07-16T12:34:28.642Z,34.40
2018-07-16T12:36:33.181Z,34.40
2018-07-16T12:38:37.935Z,34.40
2018-07-16T12:40:42.592Z,34.40
2018-07-16T12:46:55.682Z,34.50
2018-07-16T12:51:04.286Z,34.70
2018-07-16T12:53:08.742Z,34.80
2018-07-16T12:55:13.234Z,34.90
2018-07-16T12:57:17.873Z,34.90
2018-07-16T12:59:23.054Z,34.90
2018-07-16T13:01:27.524Z,35.00
2018-07-16T13:03:31.946Z,35.00
2018-07-16T13:05:36.495Z,35.10
2018-07-16T13:07:40.930Z,35.10
2018-07-16T13:09:48.139Z,35.10
2018-07-16T13:11:52.731Z,35.10
2018-07-16T13:13:57.151Z,35.20
2018-07-16T13:18:06.941Z,35.20
2018-07-16T13:20:11.415Z,35.20
2018-07-16T13:22:15.899Z,35.30
2018-07-16T13:24:20.370Z,35.30
2018-07-16T13:26:24.895Z,35.30
2018-07-16T13:28:29.396Z,35.30
2018-07-16T13:30:34.530Z,35.30
2018-07-16T13:32:39.022Z,35.40
2018-07-16T13:34:44.962Z,35.40
2018-07-16T13:36:50.518Z,35.40
2018-07-16T13:38:55.031Z,35.40
2018-07-16T13:40:59.511Z,35.50
2018-07-16T13:43:03.956Z,35.50
2018-07-16T13:45:08.423Z,35.60
2018-07-16T13:47:12.858Z,35.60
2018-07-16T13:49:17.355Z,35.60
2018-07-16T13:51:22.061Z,35.70
2018-07-16T13:53:26.476Z,35.70
2018-07-16T13:55:30.986Z,35.70
2018-07-16T13:57:35.405Z,35.80
2018-07-16T13:59:39.882Z,35.80
2018-07-16T14:03:48.525Z,35.80
2018-07-16T14:05:53.078Z,35.80
2018-07-16T14:07:57.599Z,35.80
2018-07-16T14:10:02.871Z,35.80
2018-07-16T14:12:07.544Z,35.80
2018-07-16T14:14:12.098Z,35.80
2018-07-16T14:16:19.404Z,35.80
2018-07-16T14:18:23.889Z,35.80
2018-07-16T14:20:28.311Z,35.80
2018-07-16T14:22:32.822Z,35.80
2018-07-16T14:24:37.327Z,35.90
2018-07-16T14:26:41.872Z,35.90
2018-07-16T14:30:50.648Z,36.00
2018-07-16T14:32:55.115Z,36.10
2018-07-16T14:34:59.645Z,36.10
2018-07-16T14:37:04.139Z,36.10
2018-07-16T14:39:08.859Z,36.20
2018-07-16T14:41:13.326Z,36.20
2018-07-16T14:45:21.894Z,36.30
2018-07-16T14:47:26.432Z,36.40
2018-07-16T14:49:30.822Z,36.40
2018-07-16T14:51:35.247Z,36.50
2018-07-16T14:53:39.747Z,36.50
2018-07-16T14:55:44.206Z,36.50
2018-07-16T14:57:48.728Z,36.50
2018-07-16T14:59:53.189Z,36.60
2018-07-16T15:01:57.623Z,36.60
2018-07-16T15:04:02.263Z,36.60
2018-07-16T15:06:07.036Z,36.60
2018-07-16T15:08:11.532Z,36.50
2018-07-16T15:12:20.318Z,36.40
2018-07-16T15:14:24.794Z,36.30
2018-07-16T15:16:29.233Z,36.30
2018-07-16T15:18:33.786Z,36.10
2018-07-16T15:20:38.472Z,36.10
2018-07-16T15:22:42.949Z,36.00
2018-07-16T15:24:47.571Z,35.80
2018-07-16T15:26:52.282Z,35.70
2018-07-16T15:28:56.816Z,35.60
2018-07-16T15:35:09.801Z,35.30
2018-07-16T15:37:14.290Z,35.30
2018-07-16T15:39:18.822Z,35.20
2018-07-16T15:41:23.344Z,35.20
2018-07-16T15:43:27.846Z,35.10
2018-07-16T15:45:32.294Z,35.10
2018-07-16T15:47:36.715Z,35.10
2018-07-16T15:49:41.191Z,35.10
2018-07-16T15:51:45.623Z,35.10
2018-07-16T15:53:50.114Z,35.10
2018-07-16T15:55:54.520Z,35.00
2018-07-16T15:57:58.987Z,35.00
2018-07-16T16:00:05.011Z,34.90
2018-07-16T16:02:09.657Z,35.00
2018-07-16T16:04:17.223Z,34.90
2018-07-16T16:06:22.619Z,34.80
2018-07-16T16:08:27.808Z,34.80
2018-07-16T16:10:33.129Z,34.70
2018-07-16T16:12:37.765Z,34.60
2018-07-16T16:14:43.436Z,34.60
2018-07-16T16:16:49.611Z,34.60
2018-07-16T16:18:56.591Z,34.50
2018-07-16T16:21:02.694Z,34.40
2018-07-16T16:23:08.711Z,34.30
2018-07-16T16:25:13.405Z,34.30
2018-07-16T16:27:18.031Z,34.20
2018-07-16T16:29:22.658Z,34.10
2018-07-16T16:31:27.486Z,34.10
2018-07-16T16:33:31.931Z,34.00
2018-07-16T16:35:36.651Z,33.90
2018-07-16T16:37:41.455Z,33.80
2018-07-16T16:39:45.908Z,33.70
2018-07-16T16:41:50.447Z,33.70
2018-07-16T16:43:54.951Z,33.60
2018-07-16T16:45:59.940Z,33.40
2018-07-16T16:48:05.703Z,33.40
2018-07-16T16:50:10.417Z,33.30
2018-07-16T16:54:19.604Z,33.20
2018-07-16T16:56:24.084Z,33.10
2018-07-16T17:00:33.105Z,33.00
2018-07-16T17:02:37.702Z,33.00
2018-07-16T17:04:42.376Z,32.90
2018-07-16T17:06:46.891Z,32.90
2018-07-16T17:08:51.521Z,32.80
2018-07-16T17:10:56.822Z,32.80
2018-07-16T17:13:01.400Z,32.70
2018-07-16T17:15:06.470Z,32.60
2018-07-16T17:17:10.950Z,32.60
2018-07-16T17:19:15.626Z,32.60
2018-07-16T17:23:24.370Z,32.40
2018-07-16T17:25:28.826Z,32.40
2018-07-16T17:27:33.289Z,32.40
2018-07-16T17:29:37.725Z,32.30
2018-07-16T17:31:42.186Z,32.30
2018-07-16T17:33:46.803Z,32.20
2018-07-16T17:35:51.243Z,32.10
2018-07-16T17:37:55.672Z,32.10
2018-07-16T17:40:00.144Z,32.10
2018-07-16T17:42:04.612Z,32.00
2018-07-16T17:44:09.030Z,31.90
2018-07-16T17:46:13.506Z,31.90
2018-07-16T17:48:17.919Z,31.80
2018-07-16T17:50:22.440Z,31.80
2018-07-16T17:52:26.958Z,31.70
2018-07-16T17:54:31.418Z,31.60
2018-07-16T17:56:35.906Z,31.60
2018-07-16T17:58:40.381Z,31.50
2018-07-16T18:00:44.859Z,31.40
2018-07-16T18:02:49.282Z,31.30
2018-07-16T18:04:53.736Z,31.20
2018-07-16T18:09:02.398Z,31.00
2018-07-16T18:11:07.216Z,30.90
2018-07-16T18:13:11.791Z,30.80
2018-07-16T18:15:16.214Z,30.80
2018-07-16T18:17:20.699Z,30.60
2018-07-16T18:19:25.305Z,30.60
2018-07-16T18:21:30.047Z,30.40
2018-07-16T18:23:34.499Z,30.40
2018-07-16T18:25:38.974Z,30.20
2018-07-16T18:27:43.475Z,30.10
2018-07-16T18:29:48.009Z,30.00
2018-07-16T18:33:56.700Z,29.80
2018-07-16T18:36:01.138Z,29.70
2018-07-16T18:38:05.611Z,29.60
2018-07-16T18:40:10.071Z,29.50
2018-07-16T18:42:14.652Z,29.40
2018-07-16T18:44:21.361Z,29.40
2018-07-16T18:46:27.932Z,29.20
2018-07-16T18:48:34.188Z,29.20
2018-07-16T18:50:39.783Z,29.00
2018-07-16T18:52:46.966Z,28.90
2018-07-16T18:54:53.157Z,28.90
2018-07-16T18:56:58.926Z,28.80
2018-07-16T18:59:04.476Z,28.70
2018-07-16T19:01:10.632Z,28.60
2018-07-16T19:03:18.333Z,28.50
2018-07-16T19:05:24.027Z,28.40
2018-07-16T19:07:28.872Z,28.40
2018-07-16T19:09:36.524Z,28.30
2018-07-16T19:11:42.150Z,28.20
2018-07-16T19:13:49.487Z,28.10
2018-07-16T19:15:54.905Z,28.00
2018-07-16T19:18:00.139Z,27.90
2018-07-16T19:20:06.194Z,27.90
2018-07-16T19:22:12.978Z,27.80
2018-07-16T19:24:17.498Z,27.70
2018-07-16T19:26:21.980Z,27.70
2018-07-16T19:30:31.704Z,27.50
2018-07-16T19:32:36.243Z,27.40
2018-07-16T19:34:40.763Z,27.30
2018-07-16T19:36:45.210Z,27.30
2018-07-16T19:40:54.263Z,27.10
2018-07-16T19:42:58.946Z,27.00
2018-07-16T19:45:03.538Z,26.90
2018-07-16T19:47:10.656Z,26.90
2018-07-16T19:51:22.648Z,26.70
2018-07-16T19:53:29.618Z,26.60
2018-07-16T19:55:36.066Z,26.60
2018-07-16T19:57:42.168Z,26.50
2018-07-16T19:59:49.846Z,26.40
2018-07-16T20:01:55.980Z,26.30
2018-07-16T20:04:01.302Z,26.30
2018-07-16T20:06:07.611Z,26.20
2018-07-16T20:08:14.186Z,26.10
2018-07-16T20:10:20.372Z,26.00
2018-07-16T20:12:30.778Z,25.90
2018-07-16T20:14:35.193Z,25.80
2018-07-16T20:16:41.846Z,25.70
2018-07-16T20:18:46.339Z,25.60
2018-07-16T20:20:55.336Z,25.60
2018-07-16T20:22:59.836Z,25.50
2018-07-16T20:25:04.785Z,25.40
2018-07-16T20:27:10.023Z,25.30
2018-07-16T20:29:14.504Z,25.30
2018-07-16T20:33:24.594Z,25.10
2018-07-16T20:35:29.087Z,25.10
2018-07-16T20:37:33.499Z,25.00
2018-07-16T20:39:38.153Z,24.90
2018-07-16T20:41:44.710Z,24.90
2018-07-16T20:43:51.818Z,24.80
2018-07-16T20:45:57.102Z,24.70
2018-07-16T20:48:01.910Z,24.70
2018-07-16T20:50:06.690Z,24.60
2018-07-16T20:52:11.415Z,24.50
2018-07-16T20:54:16.154Z,24.40
2018-07-16T20:56:21.691Z,24.40
2018-07-16T20:58:26.285Z,24.30
2018-07-16T21:00:32.038Z,24.20
2018-07-16T21:02:36.886Z,24.10
2018-07-16T21:04:41.387Z,24.10
2018-07-16T21:06:46.052Z,24.00
2018-07-16T21:08:50.698Z,23.90
2018-07-16T21:10:55.202Z,23.90
2018-07-16T21:12:59.965Z,23.80
2018-07-16T21:19:13.794Z,23.60
2018-07-16T21:21:18.283Z,23.60
2018-07-16T21:23:23.332Z,23.50
2018-07-16T21:25:27.882Z,23.40
2018-07-16T21:27:32.406Z,23.30
2018-07-16T21:29:36.958Z,23.30
2018-07-16T21:31:41.759Z,23.20
2018-07-16T21:33:46.210Z,23.20
2018-07-16T21:35:50.695Z,23.10
2018-07-16T21:38:00.368Z,23.10
2018-07-16T21:40:05.035Z,23.00
2018-07-16T21:42:09.999Z,22.90
2018-07-16T21:44:14.611Z,22.90
2018-07-16T21:48:23.978Z,22.80
2018-07-16T21:50:28.418Z,22.70
2018-07-16T21:54:36.999Z,22.50
2018-07-16T21:58:46.746Z,22.40
2018-07-16T22:00:51.358Z,22.40
2018-07-16T22:02:56.179Z,22.30
2018-07-16T22:05:00.849Z,22.30
2018-07-16T22:07:12.124Z,22.20
2018-07-16T22:09:16.559Z,22.20
2018-07-16T22:11:21.006Z,22.10
2018-07-16T22:13:25.466Z,22.10
2018-07-16T22:15:30.384Z,22.00
2018-07-16T22:17:34.814Z,21.90
2018-07-16T22:19:39.221Z,21.90
2018-07-16T22:21:43.779Z,21.80
2018-07-16T22:23:48.218Z,21.80
2018-07-16T22:25:52.647Z,21.70
2018-07-16T22:27:57.102Z,21.60
2018-07-16T22:30:01.639Z,21.60
2018-07-16T22:32:06.146Z,21.50
2018-07-16T22:36:14.941Z,21.40
2018-07-16T22:38:19.397Z,21.40
2018-07-16T22:40:23.927Z,21.40
2018-07-16T22:42:28.366Z,21.30
2018-07-16T22:44:32.814Z,21.30
2018-07-16T22:46:37.199Z,21.20
2018-07-16T22:48:41.644Z,21.20
2018-07-16T22:50:46.173Z,21.20
2018-07-16T22:52:51.015Z,21.10
2018-07-16T22:54:56.198Z,21.10
2018-07-16T22:57:00.656Z,21.00
2018-07-16T23:01:09.174Z,20.90
2018-07-16T23:03:13.662Z,20.90
2018-07-16T23:07:22.331Z,20.80
2018-07-16T23:09:26.867Z,20.70
2018-07-16T23:11:31.290Z,20.70
2018-07-16T23:13:35.846Z,20.60
2018-07-16T23:15:40.234Z,20.60
2018-07-16T23:17:44.708Z,20.60
2018-07-16T23:21:53.315Z,20.50
2018-07-16T23:23:57.737Z,20.50
2018-07-16T23:26:02.192Z,20.40
2018-07-16T23:28:07.383Z,20.40
2018-07-16T23:30:11.943Z,20.30
2018-07-16T23:32:16.392Z,20.30
2018-07-16T23:34:20.896Z,20.30
2018-07-16T23:36:25.422Z,20.20
2018-07-16T23:38:29.859Z,20.20
2018-07-16T23:40:34.265Z,20.10
2018-07-16T23:42:38.721Z,20.10
2018-07-16T23:44:43.142Z,20.10
2018-07-16T23:46:47.584Z,20.00
2018-07-16T23:48:52.015Z,20.00
2018-07-16T23:50:56.456Z,19.90
2018-07-16T23:53:00.945Z,19.90
2018-07-16T23:55:05.451Z,19.90
2018-07-16T23:57:09.918Z,19.80
2018-07-16T23:59:14.447Z,19.80
